createdAt,value
2023-05-11T00:01:21.245Z,11.75
2023-05-11T00:03:51.643Z,13.00
2023-05-11T00:06:22.361Z,17.00
2023-05-11T00:08:52.802Z,12.50
2023-05-11T00:11:23.480Z,13.75
2023-05-11T00:13:53.897Z,11.75
2023-05-11T00:16:24.462Z,9.00
2023-05-11T00:18:55.215Z,10.25
2023-05-11T00:21:25.701Z,9.25
2023-05-11T00:23:56.302Z,10.00
2023-05-11T00:26:27.074Z,7.25
2023-05-11T00:28:57.677Z,7.00
2023-05-11T00:31:30.226Z,8.75
2023-05-11T00:34:00.374Z,13.50
2023-05-11T00:36:30.897Z,11.00
2023-05-11T00:39:01.440Z,11.75
2023-05-11T00:41:32.068Z,7.25
2023-05-11T00:44:02.525Z,10.00
2023-05-11T00:46:33.706Z,12.25
2023-05-11T00:49:04.575Z,13.50
2023-05-11T00:51:38.529Z,11.75
2023-05-11T00:54:09.405Z,11.00
2023-05-11T00:56:40.559Z,11.25
2023-05-11T00:59:11.011Z,9.25
2023-05-11T01:01:41.670Z,12.00
2023-05-11T01:04:12.374Z,12.50
2023-05-11T01:07:02.447Z,13.75
2023-05-11T01:09:42.070Z,12.00
2023-05-11T01:12:30.033Z,12.50
2023-05-11T01:15:08.999Z,13.00
2023-05-11T01:20:28.622Z,8.00
2023-05-11T01:23:13.939Z,6.50
2023-05-11T01:29:27.322Z,7.75
2023-05-11T01:32:00.221Z,8.25
2023-05-11T01:34:33.714Z,11.00
2023-05-11T01:37:27.580Z,8.25
2023-05-11T01:40:01.469Z,6.00
2023-05-11T01:42:52.962Z,9.00
2023-05-11T01:45:25.506Z,7.00
2023-05-11T01:47:57.966Z,8.00
2023-05-11T01:50:29.419Z,4.25
2023-05-11T01:53:04.462Z,6.00
2023-05-11T01:55:37.411Z,7.00
2023-05-11T01:58:10.497Z,6.50
2023-05-11T02:00:43.498Z,4.00
2023-05-11T02:03:15.779Z,3.50
2023-05-11T02:05:49.441Z,7.50
2023-05-11T02:08:22.199Z,6.50
2023-05-11T02:10:54.960Z,6.00
2023-05-11T02:13:27.763Z,5.00
2023-05-11T02:15:59.583Z,7.75
2023-05-11T02:18:32.160Z,7.75
2023-05-11T02:21:04.543Z,8.00
2023-05-11T02:23:37.014Z,7.25
2023-05-11T02:26:28.205Z,8.00
2023-05-11T02:28:58.869Z,8.00
2023-05-11T02:31:32.324Z,8.00
2023-05-11T02:34:21.434Z,9.25
2023-05-11T02:36:58.260Z,11.00
2023-05-11T02:39:31.617Z,10.00
2023-05-11T02:42:15.180Z,13.00
2023-05-11T02:44:51.367Z,13.00
2023-05-11T02:47:25.258Z,13.25
2023-05-11T02:49:58.659Z,12.00
2023-05-11T02:52:32.447Z,7.50
2023-05-11T02:55:04.849Z,10.25
2023-05-11T02:57:36.366Z,14.00
2023-05-11T03:00:10.752Z,11.00
2023-05-11T03:02:41.622Z,10.00
2023-05-11T03:05:20.212Z,10.00
2023-05-11T03:08:00.206Z,13.00
2023-05-11T03:10:45.790Z,10.00
2023-05-11T03:13:41.588Z,10.50
2023-05-11T03:16:33.555Z,7.00
2023-05-11T03:19:13.809Z,10.75
2023-05-11T03:21:46.968Z,8.75
2023-05-11T03:24:20.576Z,9.50
2023-05-11T03:26:53.050Z,11.25
2023-05-11T03:29:34.728Z,8.50
2023-05-11T03:32:51.950Z,9.50
2023-05-11T03:35:44.720Z,11.25
2023-05-11T03:39:01.168Z,10.25
2023-05-11T03:40:45.725Z,9.00
2023-05-11T03:43:23.786Z,9.00
2023-05-11T03:45:56.667Z,5.00
2023-05-11T03:48:28.161Z,10.00
2023-05-11T03:50:59.295Z,5.00
2023-05-11T03:56:27.834Z,12.50
2023-05-11T03:58:58.702Z,9.00
2023-05-11T04:01:30.428Z,9.00
2023-05-11T04:04:01.059Z,9.00
2023-05-11T04:06:31.717Z,11.00
2023-05-11T04:09:02.317Z,8.75
2023-05-11T04:11:37.879Z,10.00
2023-05-11T04:14:08.253Z,9.75
2023-05-11T04:16:38.689Z,11.50
2023-05-11T04:19:09.463Z,9.50
2023-05-11T04:21:39.883Z,9.25
2023-05-11T04:24:10.430Z,11.00
2023-05-11T04:26:40.826Z,12.00
2023-05-11T04:29:11.514Z,12.50
2023-05-11T04:31:45.200Z,13.00
2023-05-11T04:34:16.001Z,15.00
2023-05-11T04:36:48.656Z,12.25
2023-05-11T04:39:19.175Z,10.25
2023-05-11T04:41:49.880Z,11.00
2023-05-11T04:44:20.340Z,10.50
2023-05-11T04:46:52.147Z,10.50
2023-05-11T04:49:22.747Z,12.00
2023-05-11T04:51:53.155Z,10.00
2023-05-11T04:54:23.526Z,10.50
2023-05-11T04:56:53.981Z,12.25
2023-05-11T04:59:24.467Z,11.25
2023-05-11T05:01:54.965Z,10.00
2023-05-11T05:04:25.341Z,11.00
2023-05-11T05:06:55.856Z,11.50
2023-05-11T05:09:26.361Z,7.00
2023-05-11T05:11:56.738Z,8.25
2023-05-11T05:14:28.477Z,7.75
2023-05-11T05:16:58.892Z,10.25
2023-05-11T05:19:29.146Z,9.50
2023-05-11T05:21:59.478Z,7.00
2023-05-11T05:24:29.959Z,9.50
2023-05-11T05:27:02.594Z,10.00
2023-05-11T05:29:33.235Z,10.00
2023-05-11T05:32:11.078Z,9.25
2023-05-11T05:34:39.739Z,9.00
2023-05-11T05:37:14.983Z,9.75
2023-05-11T05:39:48.433Z,8.25
2023-05-11T05:42:19.892Z,9.25
2023-05-11T05:44:55.173Z,8.75
2023-05-11T05:47:25.780Z,6.25
2023-05-11T05:49:56.589Z,9.00
2023-05-11T05:52:31.112Z,8.50
2023-05-11T05:55:03.668Z,9.00
2023-05-11T05:57:35.248Z,4.00
2023-05-11T06:00:06.816Z,10.00
2023-05-11T06:02:37.742Z,10.00
2023-05-11T06:05:09.549Z,9.75
2023-05-11T06:08:09.235Z,7.50
2023-05-11T06:10:31.099Z,8.75
2023-05-11T06:13:05.505Z,6.50
2023-05-11T06:15:37.180Z,7.50
2023-05-11T06:18:07.768Z,8.50
2023-05-11T06:20:38.246Z,6.00
2023-05-11T06:23:09.049Z,9.75
2023-05-11T06:25:39.609Z,9.20
2023-05-11T06:28:13.132Z,7.80
2023-05-11T06:30:43.506Z,8.00
2023-05-11T06:33:13.845Z,7.80
2023-05-11T06:35:44.092Z,7.20
2023-05-11T06:38:18.320Z,9.00
2023-05-11T06:40:54.617Z,3.20
2023-05-11T06:43:25.229Z,7.80
2023-05-11T06:45:55.794Z,4.40
2023-05-11T06:48:26.383Z,7.20
2023-05-11T06:50:58.389Z,7.20
2023-05-11T06:53:31.277Z,5.80
2023-05-11T06:56:07.870Z,3.40
2023-05-11T06:58:40.787Z,4.20
2023-05-11T07:01:12.298Z,3.80
2023-05-11T07:03:47.754Z,3.40
2023-05-11T07:06:18.099Z,3.00
2023-05-11T07:08:50.047Z,2.80
2023-05-11T07:11:23.286Z,2.60
2023-05-11T07:13:53.697Z,2.00
2023-05-11T07:16:24.094Z,2.60
2023-05-11T07:18:57.588Z,3.20
2023-05-11T07:21:29.822Z,2.80
2023-05-11T07:24:06.689Z,2.20
2023-05-11T07:26:41.235Z,4.20
2023-05-11T07:29:11.714Z,2.60
2023-05-11T07:31:42.283Z,3.80
2023-05-11T07:34:18.077Z,2.80
2023-05-11T07:36:52.272Z,6.00
2023-05-11T07:39:26.050Z,4.40
2023-05-11T07:41:58.508Z,2.00
2023-05-11T07:44:41.569Z,4.00
2023-05-11T07:47:13.434Z,4.00
2023-05-11T07:49:45.385Z,3.60
2023-05-11T07:52:17.622Z,4.20
2023-05-11T07:54:47.937Z,4.00
2023-05-11T07:57:19.292Z,3.20
2023-05-11T07:59:52.073Z,3.20
2023-05-11T08:02:24.249Z,4.60
2023-05-11T08:04:54.886Z,4.00
2023-05-11T08:07:25.306Z,3.80
2023-05-11T08:10:00.173Z,5.20
2023-05-11T08:12:40.251Z,2.80
2023-05-11T08:15:12.587Z,3.20
2023-05-11T08:17:45.842Z,3.20
2023-05-11T08:20:16.733Z,5.00
2023-05-11T08:22:48.945Z,4.00
2023-05-11T08:25:22.363Z,3.80
2023-05-11T08:27:55.382Z,5.00
2023-05-11T08:30:25.791Z,5.00
2023-05-11T08:32:59.376Z,3.00
2023-05-11T08:35:49.616Z,5.20
2023-05-11T08:38:26.772Z,3.60
2023-05-11T08:41:00.289Z,5.60
2023-05-11T08:43:32.631Z,4.60
2023-05-11T08:46:06.772Z,3.20
2023-05-11T08:48:40.745Z,4.00
2023-05-11T08:51:12.408Z,4.60
2023-05-11T08:53:44.930Z,4.00
2023-05-11T08:56:16.587Z,4.60
2023-05-11T08:58:50.294Z,4.00
2023-05-11T09:01:21.349Z,0.00
2023-05-11T09:03:54.198Z,5.00
2023-05-11T09:06:27.439Z,4.00
2023-05-11T09:08:58.911Z,3.00
2023-05-11T09:11:30.890Z,3.00
2023-05-11T09:14:06.067Z,3.80
2023-05-11T09:16:37.567Z,3.40
2023-05-11T09:19:09.774Z,3.00
2023-05-11T09:21:55.227Z,0.60
2023-05-11T09:24:42.872Z,2.80
2023-05-11T09:29:51.932Z,2.40
2023-05-11T09:32:18.863Z,3.00
2023-05-11T09:34:49.617Z,0.80
2023-05-11T09:37:20.079Z,3.00
2023-05-11T09:40:25.069Z,2.00
2023-05-11T09:42:26.606Z,1.00
2023-05-11T09:44:56.976Z,0.80
2023-05-11T09:47:27.717Z,2.00
2023-05-11T09:49:58.302Z,1.60
2023-05-11T09:52:28.664Z,2.80
2023-05-11T09:57:57.287Z,0.00
2023-05-11T10:00:27.567Z,3.00
2023-05-11T10:03:03.532Z,3.80
2023-05-11T10:05:36.310Z,3.00
2023-05-11T10:08:09.724Z,3.00
2023-05-11T10:10:40.774Z,3.00
2023-05-11T10:13:11.364Z,3.80
2023-05-11T10:15:43.814Z,2.80
2023-05-11T10:18:14.408Z,3.00
2023-05-11T10:20:46.532Z,1.60
2023-05-11T10:23:37.527Z,2.40
2023-05-11T10:26:09.372Z,3.80
2023-05-11T10:28:40.433Z,2.00
2023-05-11T10:31:11.338Z,2.00
2023-05-11T10:33:43.356Z,4.80
2023-05-11T10:36:19.345Z,4.00
2023-05-11T10:38:47.436Z,6.00
2023-05-11T10:44:42.976Z,2.80
2023-05-11T10:47:24.998Z,3.00
2023-05-11T10:50:29.519Z,4.20
2023-05-11T10:53:20.565Z,3.20
2023-05-11T10:56:02.884Z,2.00
2023-05-11T10:58:53.045Z,5.00
2023-05-11T11:01:38.021Z,2.00
2023-05-11T11:04:10.616Z,3.20
2023-05-11T11:09:21.427Z,2.60
2023-05-11T11:11:57.301Z,5.00
2023-05-11T11:14:32.269Z,1.80
2023-05-11T11:17:21.037Z,2.80
2023-05-11T11:19:51.613Z,2.00
2023-05-11T11:22:39.008Z,1.60
2023-05-11T11:25:13.050Z,4.00
2023-05-11T11:27:52.434Z,3.00
2023-05-11T11:30:28.747Z,2.20
2023-05-11T11:33:25.370Z,4.00
2023-05-11T11:36:02.505Z,2.40
2023-05-11T11:38:39.283Z,1.00
2023-05-11T11:41:25.105Z,3.00
2023-05-11T11:44:05.239Z,1.80
2023-05-11T11:46:38.471Z,2.40
2023-05-11T11:49:10.396Z,2.00
2023-05-11T11:51:48.877Z,2.00
2023-05-11T11:54:22.314Z,3.00
2023-05-11T11:56:54.968Z,3.40
2023-05-11T11:59:27.806Z,2.00
2023-05-11T12:02:02.308Z,2.00
2023-05-11T12:04:40.465Z,3.40
2023-05-11T12:07:15.440Z,3.00
2023-05-11T12:09:46.940Z,1.00
2023-05-11T12:12:19.227Z,4.20
2023-05-11T12:14:49.917Z,3.00
2023-05-11T12:17:35.698Z,3.20
2023-05-11T12:20:19.737Z,3.60
2023-05-11T12:22:52.767Z,2.60
2023-05-11T12:25:33.601Z,3.60
2023-05-11T12:28:05.629Z,0.40
2023-05-11T12:30:48.685Z,2.40
2023-05-11T12:33:19.146Z,2.80
2023-05-11T12:35:58.434Z,4.00
2023-05-11T12:38:29.540Z,5.00
2023-05-11T12:41:03.024Z,2.20
2023-05-11T12:43:37.106Z,4.40
2023-05-11T12:46:11.673Z,0.40
2023-05-11T12:48:42.453Z,3.00
2023-05-11T12:51:14.766Z,3.40
2023-05-11T12:53:45.570Z,3.00
2023-05-11T12:56:16.203Z,4.00
2023-05-11T12:58:46.979Z,2.00
2023-05-11T13:01:20.455Z,3.00
2023-05-11T13:03:51.101Z,3.60
2023-05-11T13:06:22.079Z,2.40
2023-05-11T13:08:52.633Z,3.20
2023-05-11T13:11:26.920Z,4.00
2023-05-11T13:13:58.145Z,3.80
2023-05-11T13:16:31.313Z,3.00
2023-05-11T13:19:04.202Z,4.00
2023-05-11T13:21:37.330Z,2.00
2023-05-11T13:24:07.906Z,2.40
2023-05-11T13:26:38.221Z,4.00
2023-05-11T13:29:11.278Z,3.00
2023-05-11T13:31:45.120Z,4.60
2023-05-11T13:34:16.277Z,4.60
2023-05-11T13:36:49.784Z,3.60
2023-05-11T13:39:20.838Z,5.00
2023-05-11T13:41:51.951Z,5.00
2023-05-11T13:44:23.005Z,5.00
2023-05-11T13:46:53.964Z,5.00
2023-05-11T13:49:24.394Z,3.60
2023-05-11T13:51:58.870Z,3.00
2023-05-11T13:54:30.251Z,3.40
2023-05-11T13:57:01.700Z,5.00
2023-05-11T13:59:32.130Z,4.00
2023-05-11T14:02:02.692Z,5.00
2023-05-11T14:04:33.469Z,3.20
2023-05-11T14:07:04.056Z,5.60
2023-05-11T14:09:34.473Z,2.00
2023-05-11T14:12:05.017Z,4.20
2023-05-11T14:14:38.014Z,1.80
2023-05-11T14:17:10.385Z,5.40
2023-05-11T14:19:40.943Z,5.00
2023-05-11T14:22:11.333Z,0.20
2023-05-11T14:24:41.774Z,4.80
2023-05-11T14:27:12.256Z,4.60
2023-05-11T14:29:44.196Z,3.25
2023-05-11T14:32:14.645Z,4.80
2023-05-11T14:34:45.272Z,5.80
2023-05-11T14:37:16.143Z,4.40
2023-05-11T14:39:46.891Z,4.40
2023-05-11T14:42:17.239Z,6.00
2023-05-11T14:44:47.844Z,5.40
2023-05-11T14:47:18.253Z,3.20
2023-05-11T14:49:48.825Z,2.75
2023-05-11T14:52:19.627Z,4.60
2023-05-11T14:54:53.175Z,6.00
2023-05-11T14:57:32.445Z,4.40
2023-05-11T15:00:06.300Z,4.00
2023-05-11T15:02:43.994Z,6.00
2023-05-11T15:05:17.360Z,4.40
2023-05-11T15:07:48.066Z,3.60
2023-05-11T15:10:21.113Z,3.80
2023-05-11T15:12:52.757Z,4.60
2023-05-11T15:15:27.957Z,4.00
2023-05-11T15:18:01.225Z,5.00
2023-05-11T15:20:34.599Z,4.00
2023-05-11T15:23:09.030Z,5.20
2023-05-11T15:25:47.637Z,3.60
2023-05-11T15:28:25.791Z,5.20
2023-05-11T15:30:59.850Z,3.20
2023-05-11T15:33:47.190Z,3.20
2023-05-11T15:36:21.298Z,4.80
2023-05-11T15:38:51.883Z,3.60
2023-05-11T15:41:23.884Z,4.40
2023-05-11T15:43:54.684Z,5.80
2023-05-11T15:46:30.875Z,4.60
2023-05-11T15:49:04.873Z,5.00
2023-05-11T15:51:35.410Z,6.60
2023-05-11T15:54:11.977Z,5.00
2023-05-11T15:57:18.321Z,5.20
2023-05-11T15:59:48.849Z,5.00
2023-05-11T16:02:20.454Z,4.00
2023-05-11T16:04:52.396Z,4.60
2023-05-11T16:07:24.224Z,5.00
2023-05-11T16:09:55.305Z,4.80
2023-05-11T16:12:25.692Z,6.00
2023-05-11T16:14:56.296Z,7.60
2023-05-11T16:17:26.752Z,4.60
2023-05-11T16:19:58.730Z,5.00
2023-05-11T16:22:31.935Z,6.40
2023-05-11T16:25:04.781Z,5.40
2023-05-11T16:27:38.942Z,6.00
2023-05-11T16:30:24.381Z,6.00
2023-05-11T16:32:53.158Z,6.40
2023-05-11T16:35:25.142Z,4.60
2023-05-11T16:37:55.366Z,4.80
2023-05-11T16:40:28.168Z,5.60
2023-05-11T16:43:01.059Z,7.50
2023-05-11T16:45:31.820Z,6.50
2023-05-11T16:48:02.132Z,5.50
2023-05-11T16:50:32.760Z,4.25
2023-05-11T16:53:03.430Z,11.75
2023-05-11T16:55:36.728Z,8.00
2023-05-11T16:58:19.603Z,7.25
2023-05-11T17:00:50.350Z,9.00
2023-05-11T17:03:21.520Z,7.25
2023-05-11T17:05:52.138Z,7.75
2023-05-11T17:08:47.351Z,7.00
2023-05-11T17:11:04.628Z,5.50
2023-05-11T17:13:35.123Z,6.75
2023-05-11T17:16:05.676Z,7.75
2023-05-11T17:18:38.225Z,7.25
2023-05-11T17:21:08.894Z,8.00
2023-05-11T17:23:39.538Z,7.00
2023-05-11T17:26:13.970Z,6.50
2023-05-11T17:28:47.036Z,6.00
2023-05-11T17:31:20.647Z,7.25
2023-05-11T17:33:53.828Z,6.00
2023-05-11T17:36:32.071Z,6.50
2023-05-11T17:39:02.241Z,7.75
2023-05-11T17:41:32.942Z,8.00
2023-05-11T17:44:09.479Z,7.00
2023-05-11T17:46:42.364Z,6.25
2023-05-11T17:49:15.248Z,7.00
2023-05-11T17:51:48.529Z,6.25
2023-05-11T17:54:23.138Z,8.50
2023-05-11T17:56:54.215Z,6.00
2023-05-11T17:59:24.777Z,7.00
2023-05-11T18:01:55.445Z,8.25
2023-05-11T18:04:33.132Z,6.00
2023-05-11T18:07:04.991Z,7.75
2023-05-11T18:09:35.503Z,7.50
2023-05-11T18:12:08.466Z,7.25
2023-05-11T18:14:38.921Z,7.00
2023-05-11T18:17:09.262Z,5.00
2023-05-11T18:19:40.642Z,7.00
2023-05-11T18:22:11.909Z,8.50
2023-05-11T18:25:03.120Z,10.75
2023-05-11T18:27:34.996Z,10.25
2023-05-11T18:30:09.316Z,6.75
2023-05-11T18:32:39.693Z,9.25
2023-05-11T18:35:15.936Z,7.75
2023-05-11T18:37:48.635Z,10.00
2023-05-11T18:40:19.555Z,10.00
2023-05-11T18:42:56.436Z,9.00
2023-05-11T18:45:30.462Z,10.00
2023-05-11T18:48:15.371Z,8.50
2023-05-11T18:50:49.893Z,8.50
2023-05-11T18:53:22.934Z,6.25
2023-05-11T18:55:53.982Z,9.00
2023-05-11T18:58:30.981Z,8.00
2023-05-11T19:01:01.892Z,13.00
2023-05-11T19:03:33.927Z,17.50
2023-05-11T19:06:06.100Z,10.50
2023-05-11T19:08:37.221Z,13.75
2023-05-11T19:11:23.598Z,8.00
2023-05-11T19:14:15.311Z,10.50
2023-05-11T19:16:44.696Z,9.00
2023-05-11T19:20:10.496Z,12.00
2023-05-11T19:22:44.000Z,12.00
2023-05-11T19:25:20.181Z,12.75
2023-05-11T19:27:51.167Z,10.25
2023-05-11T19:30:21.769Z,12.25
2023-05-11T19:32:52.425Z,11.25
2023-05-11T19:35:22.939Z,8.50
2023-05-11T19:37:53.500Z,10.25
2023-05-11T19:40:43.785Z,12.00
2023-05-11T19:42:55.987Z,8.00
2023-05-11T19:45:26.714Z,13.00
2023-05-11T19:47:59.271Z,11.50
2023-05-11T20:00:16.859Z,13.25
2023-05-11T20:02:48.286Z,12.50
2023-05-11T20:05:19.385Z,12.75
2023-05-11T20:07:54.150Z,6.50
2023-05-11T20:10:26.549Z,13.25
2023-05-11T20:12:59.962Z,13.00
2023-05-11T20:15:30.905Z,15.00
2023-05-11T20:18:06.943Z,10.25
2023-05-11T20:23:24.001Z,13.25
2023-05-11T20:25:55.064Z,11.00
2023-05-11T20:28:25.663Z,9.75
2023-05-11T20:30:56.613Z,10.50
2023-05-11T20:35:59.369Z,11.00
2023-05-11T20:38:30.040Z,10.50
2023-05-11T20:41:00.499Z,11.75
2023-05-11T20:43:30.960Z,9.00
2023-05-11T20:46:25.437Z,11.00
2023-05-11T20:48:56.982Z,10.00
2023-05-11T20:51:28.036Z,10.25
2023-05-11T20:54:03.311Z,10.50
2023-05-11T20:56:34.702Z,12.25
2023-05-11T20:59:05.280Z,10.25
2023-05-11T21:01:35.739Z,10.25
2023-05-11T21:04:06.763Z,5.00
2023-05-11T21:06:38.719Z,10.25
2023-05-11T21:09:09.196Z,9.25
2023-05-11T21:11:39.801Z,11.75
2023-05-11T21:14:10.288Z,10.75
2023-05-11T21:16:40.557Z,12.25
2023-05-11T21:19:10.898Z,12.00
2023-05-11T21:21:41.275Z,10.50
2023-05-11T21:24:11.838Z,11.50
2023-05-11T21:26:42.881Z,11.75
2023-05-11T21:29:13.196Z,9.75
2023-05-11T21:31:43.950Z,13.25
2023-05-11T21:34:14.231Z,11.00
2023-05-11T21:36:44.555Z,11.50
2023-05-11T21:39:14.957Z,11.00
2023-05-11T21:41:48.262Z,11.00
2023-05-11T21:44:20.015Z,13.00
2023-05-11T21:46:50.494Z,9.50
2023-05-11T21:49:20.995Z,9.50
2023-05-11T21:51:51.782Z,10.25
2023-05-11T21:54:22.249Z,11.00
2023-05-11T21:57:13.294Z,8.25
2023-05-11T21:59:43.825Z,0.00
2023-05-11T22:02:15.112Z,10.75
2023-05-11T22:04:47.933Z,9.00
2023-05-11T22:07:18.629Z,7.50
2023-05-11T22:09:49.177Z,8.75
2023-05-11T22:12:19.831Z,7.25
2023-05-11T22:14:55.986Z,11.25
2023-05-11T22:17:28.038Z,9.00
2023-05-11T22:19:58.571Z,11.75
2023-05-11T22:22:29.017Z,10.75
2023-05-11T22:24:59.460Z,9.50
2023-05-11T22:27:30.398Z,10.00
2023-05-11T22:30:00.928Z,10.00
2023-05-11T22:32:31.841Z,7.00
2023-05-11T22:35:02.455Z,12.00
2023-05-11T22:37:33.455Z,11.00
2023-05-11T22:40:03.974Z,11.00
2023-05-11T22:42:34.636Z,11.00
2023-05-11T22:45:06.737Z,11.00
2023-05-11T22:47:37.233Z,10.75
2023-05-11T22:50:09.603Z,11.50
2023-05-11T22:52:44.604Z,11.00
2023-05-11T22:55:16.584Z,11.00
2023-05-11T22:57:47.560Z,11.00
2023-05-11T23:00:18.256Z,12.75
2023-05-11T23:02:49.902Z,11.25
2023-05-11T23:05:20.460Z,13.00
2023-05-11T23:07:50.904Z,11.50
2023-05-11T23:10:21.268Z,10.25
2023-05-11T23:12:52.061Z,8.50
2023-05-11T23:15:22.376Z,4.25
2023-05-11T23:17:52.946Z,9.50
2023-05-11T23:20:26.249Z,10.50
2023-05-11T23:22:56.410Z,10.00
2023-05-11T23:25:26.928Z,12.25
2023-05-11T23:27:58.720Z,14.00
2023-05-11T23:30:30.535Z,11.25
2023-05-11T23:33:02.319Z,11.00
2023-05-11T23:35:32.967Z,12.00
2023-05-11T23:38:03.209Z,11.75
2023-05-11T23:40:33.886Z,10.75
2023-05-11T23:43:04.046Z,11.50
2023-05-11T23:45:34.472Z,12.00
2023-05-11T23:48:05.134Z,11.25
2023-05-11T23:50:35.661Z,11.00
2023-05-11T23:53:06.165Z,10.00
2023-05-11T23:55:37.123Z,10.00
2023-05-11T23:58:07.412Z,10.25
